Time;durP1;ratioP1;P1;durP2;ratioP2;P2;SDS_P1;SDS_P2;PMS_P1;PMS_P2;Temp;Humidity;BMP_temperature;BMP_pressure;BME280_temperature;BME280_humidity;BME280_pressure;Samples;Min_cycle;Max_cycle;Signal;HPM_P1;HPM_P2
2021/01/11 00:00:33;;;;;;;72.47;31.85;;;;;;;1.77;75.13;101678.63;1787390;80;21104;-57
2021/01/11 00:03:01;;;;;;;71.47;33.13;;;;;;;1.73;75.36;101687.39;1787380;80;21123;-57
2021/01/11 00:05:29;;;;;;;76.80;32.58;;;;;;;1.70;75.72;101694.41;1787457;80;21103;-57
2021/01/11 00:07:57;;;;;;;64.17;29.45;;;;;;;1.66;76.06;101696.55;1787359;80;21668;-57
2021/01/11 00:10:25;;;;;;;67.82;29.37;;;;;;;1.65;76.24;101719.85;1787448;80;21087;-57
2021/01/11 00:12:52;;;;;;;56.40;26.60;;;;;;;1.64;76.10;101726.00;1713766;83;21116;-57
2021/01/11 00:15:21;;;;;;;55.28;25.45;;;;;;;1.64;75.82;101726.00;1787468;80;21567;-57
2021/01/11 00:17:50;;;;;;;64.07;28.10;;;;;;;1.65;75.75;101717.66;1787388;80;21175;-57
2021/01/11 00:20:18;;;;;;;55.88;27.32;;;;;;;1.66;75.77;101704.48;1787445;80;21194;-57
2021/01/11 00:22:47;;;;;;;61.70;30.00;;;;;;;1.68;75.93;101700.11;1787257;80;21127;-57
2021/01/11 00:25:15;;;;;;;68.60;31.07;;;;;;;1.68;75.99;101710.68;1787490;80;20894;-57
2021/01/11 00:27:43;;;;;;;58.95;25.95;;;;;;;1.68;76.22;101708.03;1787301;80;21067;-57
2021/01/11 00:30:12;;;;;;;67.62;28.45;;;;;;;1.68;76.32;101698.78;1787476;80;21115;-57
2021/01/11 00:32:40;;;;;;;62.33;27.32;;;;;;;1.69;76.37;101684.70;1787475;80;21530;-57
2021/01/11 00:35:09;;;;;;;51.37;25.72;;;;;;;1.70;76.38;101669.70;1787493;80;21199;-57
2021/01/11 00:37:36;;;;;;;48.40;23.00;;;;;;;1.68;76.38;101677.63;1789672;80;21153;-57
2021/01/11 00:40:07;;;;;;;53.90;24.25;;;;;;;1.68;76.29;101710.68;1792103;79;21105;-57
2021/01/11 00:42:35;;;;;;;44.93;21.42;;;;;;;1.67;76.06;101724.77;1792110;79;21133;-57
2021/01/11 00:45:07;;;;;;;54.25;21.77;;;;;;;1.66;76.12;101736.20;1792158;80;22227;-57
2021/01/11 00:47:40;;;;;;;42.80;20.05;;;;;;;1.67;76.08;101750.30;1792040;80;21093;-57
2021/01/11 00:50:10;;;;;;;45.58;21.55;;;;;;;1.71;76.06;101764.03;1792229;80;21117;-57
2021/01/11 00:52:38;;;;;;;39.20;19.27;;;;;;;1.75;75.99;101746.47;1766012;80;21508;-57
2021/01/11 00:55:09;;;;;;;39.92;20.32;;;;;;;1.77;75.85;101724.91;1788160;80;21110;-57
2021/01/11 00:57:42;;;;;;;46.25;22.55;;;;;;;1.80;75.79;101706.45;1788225;80;21423;-57
2021/01/11 01:00:13;;;;;;;40.95;19.27;;;;;;;1.84;75.73;101692.41;1788099;80;21130;-57
2021/01/11 01:02:48;;;;;;;40.17;18.67;;;;;;;1.88;75.61;101674.84;1787409;80;21234;-57
2021/01/11 01:05:16;;;;;;;41.28;19.60;;;;;;;1.91;75.54;101671.83;1788149;80;21114;-57
2021/01/11 01:07:43;;;;;;;45.45;19.62;;;;;;;1.96;75.51;101662.20;1788187;80;21110;-57
2021/01/11 01:10:12;;;;;;;38.80;19.32;;;;;;;1.98;75.51;101655.17;1788224;80;21400;-56
2021/01/11 01:12:41;;;;;;;39.53;18.48;;;;;;;2.01;75.50;101658.30;1788144;80;21566;-56
2021/01/11 01:15:10;;;;;;;41.60;19.85;;;;;;;2.01;75.40;101649.05;1788270;80;21676;-57
2021/01/11 01:17:39;;;;;;;39.53;19.02;;;;;;;2.02;75.39;101644.21;1788119;80;21142;-57
2021/01/11 01:20:15;;;;;;;35.65;16.35;;;;;;;2.02;75.43;101646.86;1788240;80;21074;-57
2021/01/11 01:22:46;;;;;;;35.80;18.32;;;;;;;1.99;75.52;101630.49;1788191;80;21498;-57
2021/01/11 01:25:14;;;;;;;38.90;18.52;;;;;;;1.98;75.56;101630.04;1787881;80;21129;-56
2021/01/11 01:27:42;;;;;;;34.10;17.57;;;;;;;1.98;75.77;101626.07;1788169;80;21142;-58
2021/01/11 01:30:11;;;;;;;35.28;17.60;;;;;;;1.99;75.94;101621.69;1788190;80;21134;-57
2021/01/11 01:32:39;;;;;;;39.27;19.37;;;;;;;1.99;76.26;101609.78;1788104;80;21189;-58
2021/01/11 01:35:10;;;;;;;42.78;17.95;;;;;;;1.99;76.40;101602.72;1788113;80;21376;-57
2021/01/11 01:37:37;;;;;;;41.58;17.82;;;;;;;1.98;76.76;101595.66;1779242;80;21076;-57
2021/01/11 01:40:06;;;;;;;35.63;16.93;;;;;;;2.00;76.88;101608.91;1770498;81;21064;-57
2021/01/11 01:42:34;;;;;;;39.00;17.32;;;;;;;1.99;76.93;101621.23;1770524;81;21084;-57
2021/01/11 01:45:05;;;;;;;36.38;17.80;;;;;;;1.98;77.06;101634.42;1770434;81;21132;-56
2021/01/11 01:47:33;;;;;;;38.45;18.00;;;;;;;1.96;77.23;101654.26;1770580;80;21370;-57
2021/01/11 01:50:05;;;;;;;33.50;17.12;;;;;;;1.95;77.46;101658.19;1770457;81;21227;-57
2021/01/11 01:52:36;;;;;;;35.17;18.48;;;;;;;1.95;77.67;101653.80;1770229;81;21167;-58
2021/01/11 01:55:12;;;;;;;39.73;18.50;;;;;;;1.96;77.89;101641.45;1768883;81;21053;-58
2021/01/11 01:57:41;;;;;;;31.50;16.93;;;;;;;1.94;78.26;101633.93;1769026;81;21123;-56
2021/01/11 02:00:11;;;;;;;37.85;18.17;;;;;;;1.92;78.65;101637.89;1769098;81;21358;-57
2021/01/11 02:02:41;;;;;;;42.45;18.25;;;;;;;1.93;79.06;101634.38;1769096;81;21136;-57
2021/01/11 02:05:09;;;;;;;38.17;18.20;;;;;;;1.92;79.28;101640.54;1769094;81;21148;-57
2021/01/11 02:08:01;;;;;;;37.83;18.48;;;;;;;1.92;79.52;101647.16;1769145;81;21084;-56
2021/01/11 02:10:51;;;;;;;33.20;16.52;;;;;;;1.91;79.66;101642.73;1737945;82;21195;-57
2021/01/11 02:13:33;;;;;;;36.73;19.30;;;;;;;1.94;79.81;101649.38;1737891;82;22411;-57
2021/01/11 02:16:12;;;;;;;44.73;18.98;;;;;;;1.94;79.98;101638.80;1737810;82;21135;-56
2021/01/11 02:19:01;;;;;;;36.03;17.65;;;;;;;1.96;80.20;101645.00;1737889;82;21147;-57
2021/01/11 02:22:00;;;;;;;37.03;18.60;;;;;;;1.95;80.38;101645.88;1737841;82;21162;-57
2021/01/11 02:24:58;;;;;;;38.25;18.67;;;;;;;1.93;80.59;101639.67;1737895;82;21092;-57
2021/01/11 02:27:55;;;;;;;33.20;16.70;;;;;;;1.92;80.77;101647.16;1737824;82;21386;-57
2021/01/11 02:30:31;;;;;;;39.23;17.77;;;;;;;1.91;80.98;101650.66;1737769;82;21201;-56
2021/01/11 02:33:05;;;;;;;36.25;18.77;;;;;;;1.89;81.37;101651.49;1737950;82;21595;-57
2021/01/11 02:36:00;;;;;;;34.43;17.65;;;;;;;1.89;81.41;101645.78;1737834;82;21190;-57
2021/01/11 02:38:27;;;;;;;35.58;18.27;;;;;;;1.89;81.47;101645.78;1712895;82;21082;-57
2021/01/11 02:40:55;;;;;;;33.15;16.93;;;;;;;1.89;81.70;101639.59;1708361;84;21352;-57
2021/01/11 02:43:22;;;;;;;35.70;18.25;;;;;;;1.88;81.88;101622.85;1708293;84;21143;-57
2021/01/11 02:45:50;;;;;;;36.80;18.73;;;;;;;1.88;81.96;101610.95;1708409;84;21156;-57
2021/01/11 02:48:26;;;;;;;40.50;19.07;;;;;;;1.87;82.18;101606.50;1708387;84;21186;-57
2021/01/11 02:51:23;;;;;;;38.15;18.85;;;;;;;1.85;82.29;101616.16;1708444;84;21084;-57
2021/01/11 02:54:08;;;;;;;35.43;17.25;;;;;;;1.82;82.45;101613.06;1712189;83;21222;-56
2021/01/11 02:57:25;;;;;;;37.25;18.73;;;;;;;1.80;82.71;101623.14;1716421;83;21197;-57
2021/01/11 02:59:53;;;;;;;34.15;17.80;;;;;;;1.77;82.99;101620.04;1717015;83;21127;-58
2021/01/11 03:02:22;;;;;;;34.38;17.30;;;;;;;1.74;83.21;101603.23;1716829;83;21116;-56
2021/01/11 03:04:50;;;;;;;31.73;15.93;;;;;;;1.71;83.39;101595.71;1688975;83;21552;-58
2021/01/11 03:07:17;;;;;;;31.52;16.70;;;;;;;1.70;83.57;101587.32;1716736;83;21359;-57
2021/01/11 03:09:47;;;;;;;33.10;16.55;;;;;;;1.71;83.67;101580.27;1716805;83;21073;-56
2021/01/11 03:12:14;;;;;;;39.70;17.98;;;;;;;1.71;83.83;101597.03;1716766;83;21095;-56
2021/01/11 03:14:42;;;;;;;36.10;17.62;;;;;;;1.69;84.02;101602.73;1716815;83;21159;-57
2021/01/11 03:17:09;;;;;;;36.75;18.02;;;;;;;1.70;84.13;101599.22;1716855;83;21140;-57
2021/01/11 03:19:37;;;;;;;35.25;17.50;;;;;;;1.68;84.23;101602.28;1717021;83;21503;-57
2021/01/11 03:22:05;;;;;;;35.83;18.55;;;;;;;1.68;84.42;101606.66;1716900;83;21211;-56
2021/01/11 03:24:32;;;;;;;34.78;16.57;;;;;;;1.68;84.58;101599.63;1717061;83;21179;-56
2021/01/11 03:27:00;;;;;;;35.28;17.00;;;;;;;1.68;84.74;101599.63;1716919;83;21203;-57
2021/01/11 03:29:28;;;;;;;35.33;18.60;;;;;;;1.69;84.87;101602.73;1716952;83;21164;-57
2021/01/11 03:31:56;;;;;;;36.00;18.05;;;;;;;1.70;84.86;101603.19;1717001;83;21384;-56
2021/01/11 03:34:24;;;;;;;39.50;17.27;;;;;;;1.73;84.97;101600.13;1716907;83;21164;-57
2021/01/11 03:36:52;;;;;;;32.25;16.40;;;;;;;1.75;85.08;101605.88;1721472;82;21155;-57
2021/01/11 03:39:19;;;;;;;35.43;18.50;;;;;;;1.77;85.33;101611.20;1741093;82;21143;-57
2021/01/11 03:41:47;;;;;;;35.17;17.42;;;;;;;1.79;85.34;101636.82;1741155;82;21100;-57
2021/01/11 03:44:14;;;;;;;35.43;17.30;;;;;;;1.82;85.36;101626.70;1741106;82;21538;-57
2021/01/11 03:46:42;;;;;;;36.75;18.17;;;;;;;1.85;85.30;101621.45;1741089;82;21155;-57
2021/01/11 03:49:10;;;;;;;30.20;15.13;;;;;;;1.88;85.33;101627.23;1741075;82;21123;-57
2021/01/11 03:51:37;;;;;;;31.60;16.80;;;;;;;1.90;85.25;101622.86;1741176;82;21072;-57
2021/01/11 03:54:05;;;;;;;30.27;16.15;;;;;;;1.92;85.23;101640.95;1742316;82;21071;-57
2021/01/11 03:56:33;;;;;;;35.13;17.30;;;;;;;1.91;85.26;101637.44;1789423;80;21696;-57
2021/01/11 03:59:01;;;;;;;32.20;16.87;;;;;;;1.92;85.25;101622.02;1789261;80;21119;-57
2021/01/11 04:01:28;;;;;;;32.23;15.90;;;;;;;1.93;85.24;101621.16;1789339;80;21143;-57
2021/01/11 04:03:57;;;;;;;35.65;18.20;;;;;;;1.93;85.21;101633.06;1789356;80;21056;-57
2021/01/11 04:06:24;;;;;;;35.35;17.40;;;;;;;1.94;85.11;101641.45;1789350;80;21098;-57
2021/01/11 04:08:52;;;;;;;35.13;17.52;;;;;;;1.95;85.01;101639.67;1789436;80;21387;-56
2021/01/11 04:11:20;;;;;;;33.05;17.73;;;;;;;1.94;84.92;101648.48;1789260;80;21174;-56
2021/01/11 04:13:48;;;;;;;42.55;18.32;;;;;;;1.92;84.85;101642.28;1789374;80;21083;-57
2021/01/11 04:16:16;;;;;;;33.65;17.50;;;;;;;1.89;84.87;101652.39;1789397;80;21479;-57
2021/01/11 04:18:44;;;;;;;32.38;17.35;;;;;;;1.90;84.92;101659.88;1789411;80;21080;-57
2021/01/11 04:21:13;;;;;;;37.10;18.48;;;;;;;1.89;84.88;101656.37;1789289;80;21347;-57
2021/01/11 04:23:42;;;;;;;38.42;18.75;;;;;;;1.88;84.92;101638.72;1789342;80;21305;-57
2021/01/11 04:26:10;;;;;;;32.80;16.50;;;;;;;1.86;84.98;101637.77;1789367;80;21131;-57
2021/01/11 04:28:38;;;;;;;35.35;18.02;;;;;;;1.85;85.02;101650.55;1789344;80;21143;-57
2021/01/11 04:31:06;;;;;;;31.15;16.75;;;;;;;1.83;85.05;101658.89;1789371;80;21123;-57
2021/01/11 04:33:33;;;;;;;34.05;16.45;;;;;;;1.84;85.11;101667.28;1789351;80;21480;-57
2021/01/11 04:36:01;;;;;;;37.35;18.23;;;;;;;1.85;85.16;101680.95;1789314;80;21135;-56
2021/01/11 04:38:28;;;;;;;35.10;17.17;;;;;;;1.84;85.25;101666.86;1763023;80;21196;-57
2021/01/11 04:41:01;;;;;;;37.33;18.20;;;;;;;1.84;85.39;101668.60;1758687;81;21050;-57
2021/01/11 04:43:32;;;;;;;36.55;18.82;;;;;;;1.83;85.50;101665.08;1758681;81;21177;-57
2021/01/11 04:46:00;;;;;;;34.83;17.87;;;;;;;1.84;85.59;101663.31;1758399;81;21551;-57
2021/01/11 04:48:31;;;;;;;35.25;17.32;;;;;;;1.85;85.68;101670.38;1758578;81;21070;-58
2021/01/11 04:50:58;;;;;;;36.90;18.60;;;;;;;1.84;85.90;101671.25;1758757;81;22209;-57
2021/01/11 04:53:26;;;;;;;35.10;18.27;;;;;;;1.84;85.89;101681.83;1758684;81;21182;-57
2021/01/11 04:55:55;;;;;;;37.53;18.60;;;;;;;1.85;85.87;101684.92;1758245;81;21158;-57
2021/01/11 04:58:23;;;;;;;37.78;19.40;;;;;;;1.85;85.83;101676.99;1758568;81;21380;-57
2021/01/11 05:00:51;;;;;;;33.78;17.15;;;;;;;1.82;85.83;101680.91;1758665;81;21139;-57
2021/01/11 05:03:19;;;;;;;36.75;17.92;;;;;;;1.79;85.94;101691.03;1731789;81;21161;-57
2021/01/11 05:05:46;;;;;;;33.92;17.30;;;;;;;1.81;85.92;101693.68;1758539;81;21118;-57
2021/01/11 05:08:14;;;;;;;35.75;18.02;;;;;;;1.82;85.93;101676.95;1758745;81;21050;-57
2021/01/11 05:10:41;;;;;;;36.17;17.55;;;;;;;1.82;85.82;101669.02;1758539;81;21205;-57
2021/01/11 05:13:11;;;;;;;35.45;19.37;;;;;;;1.82;85.69;101665.95;1758673;81;21142;-57
2021/01/11 05:15:40;;;;;;;43.98;20.40;;;;;;;1.82;85.59;101671.66;1758533;81;21173;-56
2021/01/11 05:18:16;;;;;;;42.55;19.27;;;;;;;1.81;85.52;101661.95;1758621;81;21062;-57
2021/01/11 05:20:43;;;;;;;35.40;18.17;;;;;;;1.81;85.44;101657.98;1758643;81;21133;-58
2021/01/11 05:23:13;;;;;;;35.68;18.45;;;;;;;1.81;85.41;101663.27;1758764;81;21463;-58
2021/01/11 05:25:45;;;;;;;35.17;18.02;;;;;;;1.82;85.33;101667.27;1758494;81;21205;-57
2021/01/11 05:28:14;;;;;;;44.05;20.92;;;;;;;1.83;85.12;101664.18;1758621;81;20999;-57
2021/01/11 05:30:46;;;;;;;41.98;20.62;;;;;;;1.82;85.03;101665.95;1758548;81;21114;-58
2021/01/11 05:33:21;;;;;;;38.65;19.82;;;;;;;1.80;84.93;101661.49;1758632;81;21090;-58
2021/01/11 05:36:13;;;;;;;39.13;19.45;;;;;;;1.78;84.74;101659.26;1758676;81;21206;-57
2021/01/11 05:38:47;;;;;;;44.55;20.57;;;;;;;1.73;84.62;101651.69;1789674;80;21117;-57
2021/01/11 05:41:24;;;;;;;40.67;19.77;;;;;;;1.68;84.54;101652.93;1791657;79;21505;-57
2021/01/11 05:44:12;;;;;;;41.23;21.02;;;;;;;1.63;84.31;101655.94;1791413;80;21186;-57
2021/01/11 05:46:42;;;;;;;47.40;20.80;;;;;;;1.55;84.19;101650.52;1791500;80;21163;-57
2021/01/11 05:49:10;;;;;;;41.35;20.85;;;;;;;1.47;84.11;101638.94;1791507;80;21421;-58
2021/01/11 05:51:38;;;;;;;45.40;20.60;;;;;;;1.39;84.20;101631.74;1791392;80;21071;-57
2021/01/11 05:54:08;;;;;;;41.83;20.20;;;;;;;1.34;84.24;101624.62;1788809;80;21109;-57
2021/01/11 05:56:51;;;;;;;43.20;20.17;;;;;;;1.31;84.26;101628.09;1770816;81;21504;-56
2021/01/11 05:59:19;;;;;;;39.27;19.00;;;;;;;1.31;84.32;101629.41;1770866;81;21160;-57
2021/01/11 06:01:46;;;;;;;39.13;19.95;;;;;;;1.26;84.42;101640.34;1739408;82;21212;-58
2021/01/11 06:04:14;;;;;;;48.35;20.97;;;;;;;1.24;84.64;101642.94;1739430;82;21527;-57
2021/01/11 06:06:42;;;;;;;43.50;21.10;;;;;;;1.26;84.84;101637.70;1739395;82;21150;-58
2021/01/11 06:09:10;;;;;;;42.90;21.70;;;;;;;1.28;85.07;101634.64;1739405;82;21139;-57
2021/01/11 06:11:39;;;;;;;44.75;21.80;;;;;;;1.33;85.29;101638.25;1739380;82;21185;-57
2021/01/11 06:14:06;;;;;;;48.30;22.20;;;;;;;1.36;85.31;101644.91;1708324;84;21783;-57
2021/01/11 06:16:34;;;;;;;50.85;22.55;;;;;;;1.40;85.32;101648.51;1770677;81;21076;-57
2021/01/11 06:19:02;;;;;;;45.78;22.50;;;;;;;1.41;85.30;101655.57;1770744;81;21120;-57
2021/01/11 06:21:30;;;;;;;41.75;20.55;;;;;;;1.41;85.30;101653.80;1770791;81;21120;-57
2021/01/11 06:24:17;;;;;;;40.23;20.25;;;;;;;1.46;85.56;101641.13;1739340;82;21083;-58
2021/01/11 06:26:46;;;;;;;41.65;20.88;;;;;;;1.48;85.67;101657.45;1739424;82;21368;-57
2021/01/11 06:29:32;;;;;;;42.75;20.88;;;;;;;1.48;85.82;101652.16;1739297;82;21108;-59
2021/01/11 06:32:19;;;;;;;;;;;;;;;1.49;85.90;101667.16;1742044;82;21182;-58
2021/01/11 06:34:46;;;;;;;40.15;20.45;;;;;;;1.51;86.02;101668.52;1739430;82;20231;-57
2021/01/11 06:37:21;;;;;;;41.60;20.65;;;;;;;1.53;86.08;101675.59;1700158;84;21091;-57
2021/01/11 06:39:49;;;;;;;42.88;20.97;;;;;;;1.55;86.17;101684.88;1710063;84;21423;-56
2021/01/11 06:42:18;;;;;;;40.38;19.57;;;;;;;1.58;86.19;101683.61;1709688;84;21254;-57
2021/01/11 06:44:49;;;;;;;46.68;20.70;;;;;;;1.57;86.18;101679.19;1709700;84;21194;-56
2021/01/11 06:47:30;;;;;;;42.23;19.90;;;;;;;1.59;86.28;101678.78;1709733;84;21154;-57
2021/01/11 06:50:08;;;;;;;41.40;20.88;;;;;;;1.60;86.32;101677.91;1709619;84;21093;-56
2021/01/11 06:52:38;;;;;;;43.68;21.73;;;;;;;1.65;86.30;101680.19;1709953;84;21526;-56
2021/01/11 06:55:13;;;;;;;48.73;22.62;;;;;;;1.68;86.26;101671.02;1714795;83;21142;-54
2021/01/11 06:57:40;;;;;;;44.58;21.42;;;;;;;1.74;86.30;101674.63;1734660;82;21445;-56
2021/01/11 07:00:10;;;;;;;44.00;21.93;;;;;;;1.81;86.22;101661.95;1744848;82;21173;-56
2021/01/11 07:02:42;;;;;;;48.50;23.15;;;;;;;1.86;86.00;101655.88;1744996;82;21053;-59
2021/01/11 07:05:35;;;;;;;45.63;23.67;;;;;;;1.91;85.60;101659.92;1744805;81;21205;-55
2021/01/11 07:08:16;;;;;;;55.33;25.97;;;;;;;1.91;85.47;101658.59;1737760;81;21526;-56
2021/01/11 07:10:45;;;;;;;56.37;26.02;;;;;;;1.92;85.26;101659.05;1745005;82;21101;-55
2021/01/11 07:13:23;;;;;;;51.50;24.80;;;;;;;1.91;84.99;101650.66;1744845;81;21149;-55
2021/01/11 07:15:59;;;;;;;55.92;26.17;;;;;;;1.90;84.81;101651.53;1745030;81;21132;-56
2021/01/11 07:18:44;;;;;;;57.78;26.62;;;;;;;1.88;84.78;101659.88;1744910;82;21709;-55
2021/01/11 07:21:16;;;;;;;51.88;26.02;;;;;;;1.88;84.92;101649.72;1745271;81;21093;-55
2021/01/11 07:23:44;;;;;;;54.98;27.37;;;;;;;1.91;84.97;101644.05;1744851;82;21106;-55
2021/01/11 07:26:17;;;;;;;62.70;30.48;;;;;;;1.95;84.86;101637.03;1744932;82;21129;-55
2021/01/11 07:29:00;;;;;;;56.95;27.98;;;;;;;1.98;84.56;101635.75;1744949;81;21082;-56
2021/01/11 07:31:34;;;;;;;56.13;27.52;;;;;;;1.95;84.39;101639.67;1744943;82;21305;-57
2021/01/11 07:34:13;;;;;;;54.20;25.88;;;;;;;1.94;84.54;101649.38;1744859;82;21161;-56
2021/01/11 07:36:44;;;;;;;53.30;26.15;;;;;;;1.97;84.62;101669.27;1743035;82;21553;-56
2021/01/11 07:39:26;;;;;;;49.65;24.70;;;;;;;2.01;84.50;101691.37;1760767;81;21113;-55
2021/01/11 07:42:03;;;;;;;53.38;25.15;;;;;;;2.00;84.44;101693.11;1760714;81;21061;-56
2021/01/11 07:44:35;;;;;;;55.12;26.70;;;;;;;1.99;84.58;101688.69;1760783;81;22286;-57
2021/01/11 07:47:09;;;;;;;59.85;28.57;;;;;;;2.07;84.67;101677.33;1759882;81;21145;-56
2021/01/11 07:49:41;;;;;;;54.53;27.25;;;;;;;2.12;84.50;101669.05;1760765;81;21482;-56
2021/01/11 07:52:12;;;;;;;64.42;30.90;;;;;;;2.14;84.30;101672.61;1760551;81;21184;-56
2021/01/11 07:54:40;;;;;;;58.10;29.92;;;;;;;2.11;83.83;101669.92;1759332;81;21140;-55
2021/01/11 07:57:13;;;;;;;60.05;29.32;;;;;;;2.08;83.72;101665.88;1736295;82;21324;-56
2021/01/11 07:59:42;;;;;;;56.28;27.80;;;;;;;2.04;83.44;101668.03;1736117;82;21132;-56
2021/01/11 08:02:14;;;;;;;58.60;28.10;;;;;;;1.91;83.46;101670.50;1736315;82;21561;-57
2021/01/11 08:04:42;;;;;;;58.08;27.85;;;;;;;1.85;83.86;101671.28;1736353;82;21558;-56
2021/01/11 08:07:11;;;;;;;56.63;28.02;;;;;;;1.84;84.02;101664.64;1736380;82;21137;-56
2021/01/11 08:09:41;;;;;;;59.13;27.90;;;;;;;1.82;84.00;101665.95;1736253;82;21152;-57
2021/01/11 08:12:17;;;;;;;65.87;30.15;;;;;;;1.79;84.21;101672.94;1736382;82;21195;-56
2021/01/11 08:14:45;;;;;;;60.50;30.10;;;;;;;1.75;84.40;101702.84;1736369;82;21140;-57
2021/01/11 08:17:20;;;;;;;78.02;34.05;;;;;;;1.75;84.83;101698.88;1736318;82;21061;-55
2021/01/11 08:19:52;;;;;;;67.17;31.55;;;;;;;1.77;85.01;101695.83;1736364;82;21052;-56
2021/01/11 08:22:20;;;;;;;71.12;32.08;;;;;;;1.79;85.16;101693.67;1736351;82;21378;-55
2021/01/11 08:24:51;;;;;;;72.85;35.78;;;;;;;1.78;85.25;101694.95;1736269;82;21073;-57
2021/01/11 08:27:25;;;;;;;72.87;34.20;;;;;;;1.79;85.30;101699.38;1736294;82;21153;-55
2021/01/11 08:29:53;;;;;;;78.67;36.60;;;;;;;1.80;85.36;101697.19;1736326;82;21145;-56
2021/01/11 08:32:21;;;;;;;75.80;33.75;;;;;;;1.82;85.33;101690.17;1736278;82;21128;-56
2021/01/11 08:34:48;;;;;;;75.87;31.30;;;;;;;1.84;85.25;101684.47;1736365;82;22135;-56
2021/01/11 08:37:29;;;;;;;96.78;38.88;;;;;;;1.85;85.34;101695.50;1742436;81;21086;-56
2021/01/11 08:40:01;;;;;;;75.70;32.83;;;;;;;1.88;85.42;101678.80;1743774;82;21153;-57
2021/01/11 08:42:29;;;;;;;79.80;32.42;;;;;;;1.92;85.44;101669.63;1722299;83;21066;-57
2021/01/11 08:45:36;;;;;;;67.12;31.45;;;;;;;1.94;85.40;101670.96;1743659;82;21069;-56
2021/01/11 08:48:15;;;;;;;70.80;29.15;;;;;;;1.96;85.43;101666.16;1722324;83;21553;-57
2021/01/11 08:50:56;;;;;;;76.00;32.73;;;;;;;2.02;85.43;101665.80;1743597;82;21236;-57
2021/01/11 08:53:29;;;;;;;68.92;32.98;;;;;;;2.04;85.29;101652.16;1719534;83;21189;-55
2021/01/11 08:56:04;;;;;;;54.93;23.97;;;;;;;2.06;85.29;101658.35;1743722;82;21172;-56
2021/01/11 08:58:32;;;;;;;91.08;36.17;;;;;;;2.08;85.21;101655.30;1724375;83;21135;-57
2021/01/11 09:01:25;;;;;;;101.62;34.78;;;;;;;2.08;85.26;101663.23;1743425;82;21204;-57
2021/01/11 09:03:55;;;;;;;83.97;33.30;;;;;;;2.11;85.29;101650.95;1724227;83;21166;-56
2021/01/11 09:06:43;;;;;;;61.15;29.55;;;;;;;2.17;85.29;101644.86;1743357;82;21145;-57
2021/01/11 09:09:19;;;;;;;79.40;31.10;;;;;;;2.19;85.17;101653.70;1724220;83;21581;-57
2021/01/11 09:11:48;;;;;;;83.17;34.67;;;;;;;2.19;85.23;101672.23;1743423;82;21121;-56
2021/01/11 09:14:18;;;;;;;79.85;31.15;;;;;;;2.20;85.35;101680.63;1724431;83;22270;-56
2021/01/11 09:16:47;;;;;;;99.52;37.48;;;;;;;2.22;85.52;101694.77;1743364;82;21102;-56
2021/01/11 09:19:17;;;;;;;73.70;33.88;;;;;;;2.24;85.67;101678.47;1724252;83;21110;-57
2021/01/11 09:21:56;;;;;;;69.72;32.28;;;;;;;2.31;85.74;101666.64;1743287;82;21069;-56
2021/01/11 09:24:24;;;;;;;91.15;38.20;;;;;;;2.34;85.73;101670.23;1724319;83;21154;-56
2021/01/11 09:26:53;;;;;;;78.97;32.30;;;;;;;2.37;85.59;101676.02;1743315;82;21450;-57
2021/01/11 09:29:20;;;;;;;77.90;31.68;;;;;;;2.37;85.39;101676.89;1724251;83;21122;-57
2021/01/11 09:31:48;;;;;;;64.95;31.48;;;;;;;2.39;85.29;101676.92;1743372;82;21054;-57
2021/01/11 09:34:17;;;;;;;77.95;33.88;;;;;;;2.43;85.25;101680.06;1724256;83;21075;-57
2021/01/11 09:36:45;;;;;;;92.02;35.52;;;;;;;2.44;85.20;101681.84;1743258;82;21065;-57
2021/01/11 09:39:14;;;;;;;89.92;33.05;;;;;;;2.49;85.20;101672.64;1755867;81;21350;-57
2021/01/11 09:41:51;;;;;;;83.00;32.58;;;;;;;2.52;85.08;101674.00;1755737;81;21108;-57
2021/01/11 09:44:20;;;;;;;60.78;29.67;;;;;;;2.55;85.09;101663.45;1756049;81;21163;-57
2021/01/11 09:46:51;;;;;;;69.03;31.15;;;;;;;2.60;84.98;101652.92;1755834;81;21152;-56
2021/01/11 09:49:19;;;;;;;58.20;29.63;;;;;;;2.64;84.78;101648.11;1755925;81;21944;-57
2021/01/11 09:51:47;;;;;;;60.35;29.02;;;;;;;2.67;84.69;101636.23;1755899;81;21803;-57
2021/01/11 09:54:15;;;;;;;69.67;31.12;;;;;;;2.68;84.73;101644.63;1755777;81;21087;-57
2021/01/11 09:56:42;;;;;;;69.67;31.33;;;;;;;2.69;84.78;101649.05;1754666;81;21159;-57
2021/01/11 09:59:10;;;;;;;71.33;30.92;;;;;;;2.74;84.85;101646.02;1753918;81;21195;-56
2021/01/11 10:01:48;;;;;;;63.52;27.87;;;;;;;2.80;84.96;101645.20;1754051;81;21056;-56
2021/01/11 10:04:18;;;;;;;59.50;28.17;;;;;;;2.86;84.96;101650.15;1753969;81;21265;-57
2021/01/11 10:06:53;;;;;;;54.85;27.07;;;;;;;2.94;84.89;101657.28;1753871;81;21144;-56
2021/01/11 10:09:25;;;;;;;;;;;;;;;3.00;84.76;101650.75;1756696;81;21159;-57
2021/01/11 10:11:55;;;;;;;59.53;25.40;;;;;;;3.02;84.59;101641.05;1740700;82;20218;-57
2021/01/11 10:14:22;;;;;;;69.82;28.90;;;;;;;3.02;84.66;101630.45;1740947;82;21771;-56
2021/01/11 10:16:50;;;;;;;65.75;27.67;;;;;;;3.03;84.65;101622.96;1740802;82;21301;-56
2021/01/11 10:19:20;;;;;;;66.92;30.08;;;;;;;3.04;84.71;101619.86;1740711;82;21046;-58
2021/01/11 10:21:48;;;;;;;60.73;29.02;;;;;;;3.02;84.63;101613.23;1740664;82;21173;-58
2021/01/11 10:24:16;;;;;;;68.20;28.67;;;;;;;3.02;84.62;101634.44;1740730;82;21128;-56
2021/01/11 10:26:46;;;;;;;53.65;24.67;;;;;;;2.99;84.70;101630.43;1740656;82;21093;-57
2021/01/11 10:29:15;;;;;;;62.80;27.25;;;;;;;2.99;85.12;101635.73;1740603;82;21216;-57
2021/01/11 10:31:44;;;;;;;58.48;25.30;;;;;;;3.01;85.43;101637.95;1740669;82;21132;-58
2021/01/11 10:34:13;;;;;;;50.60;23.73;;;;;;;3.03;85.69;101632.23;1740599;82;21557;-57
2021/01/11 10:36:43;;;;;;;48.33;22.22;;;;;;;3.05;86.04;101633.13;1740611;82;21121;-56
2021/01/11 10:39:10;;;;;;;48.68;21.00;;;;;;;3.09;86.31;101628.31;1740636;82;21514;-57
2021/01/11 10:41:39;;;;;;;47.03;22.02;;;;;;;3.14;86.50;101631.89;1740630;82;21066;-57
2021/01/11 10:44:08;;;;;;;49.58;21.40;;;;;;;3.21;86.55;101635.95;1740573;82;21074;-56
2021/01/11 10:46:36;;;;;;;44.27;20.72;;;;;;;3.29;86.45;101634.25;1740647;82;21503;-58
2021/01/11 10:49:04;;;;;;;51.02;22.90;;;;;;;3.35;86.34;101639.59;1740604;82;21216;-57
2021/01/11 10:51:33;;;;;;;44.20;21.82;;;;;;;3.37;86.12;101641.82;1740612;82;21153;-57
2021/01/11 10:54:03;;;;;;;43.85;21.15;;;;;;;3.40;86.00;101642.30;1740568;82;21376;-56
2021/01/11 10:56:30;;;;;;;34.60;18.60;;;;;;;3.43;86.06;101641.91;1740375;82;21149;-57
2021/01/11 10:59:01;;;;;;;44.50;21.45;;;;;;;3.49;86.00;101638.39;1740669;82;21062;-57
2021/01/11 11:01:29;;;;;;;41.53;20.75;;;;;;;3.51;85.79;101634.44;1740629;82;21081;-58
2021/01/11 11:03:56;;;;;;;41.42;21.77;;;;;;;3.51;85.81;101626.48;1740703;82;21073;-57
2021/01/11 11:06:25;;;;;;;39.88;20.20;;;;;;;3.50;85.74;101621.61;1740679;82;21390;-57
2021/01/11 11:08:53;;;;;;;41.60;19.55;;;;;;;3.51;85.68;101611.91;1740632;82;21165;-57
2021/01/11 11:11:21;;;;;;;42.35;20.43;;;;;;;3.52;85.59;101612.35;1740630;82;21125;-56
2021/01/11 11:13:49;;;;;;;44.80;21.15;;;;;;;3.54;85.38;101607.95;1740749;82;21066;-56
2021/01/11 11:16:17;;;;;;;44.75;21.45;;;;;;;3.55;85.40;101609.72;1740601;82;21077;-57
2021/01/11 11:18:45;;;;;;;44.05;20.25;;;;;;;3.58;85.51;101611.06;1740700;82;21393;-57
2021/01/11 11:21:12;;;;;;;39.92;20.02;;;;;;;3.56;85.57;101607.52;1740572;82;21132;-58
2021/01/11 11:23:41;;;;;;;47.62;21.17;;;;;;;3.53;85.43;101608.82;1740823;82;21207;-57
2021/01/11 11:26:09;;;;;;;42.98;19.90;;;;;;;3.48;85.62;101627.34;1740734;82;21181;-56
2021/01/11 11:28:37;;;;;;;42.10;21.30;;;;;;;3.43;85.93;101622.02;1740657;82;21125;-57
2021/01/11 11:31:05;;;;;;;42.15;20.15;;;;;;;3.38;86.05;101625.04;1740650;82;21375;-57
2021/01/11 11:33:36;;;;;;;49.70;23.07;;;;;;;3.33;86.13;101634.72;1736471;82;21102;-56
2021/01/11 11:36:05;;;;;;;49.73;22.90;;;;;;;3.26;86.40;101626.27;1740763;82;21085;-57